createdAt,value
2023-03-07T00:00:21.325Z,92.22
2023-03-07T00:01:21.315Z,92.63
2023-03-07T00:02:21.332Z,92.22
2023-03-07T00:03:21.261Z,92.74
2023-03-07T00:04:21.289Z,92.74
2023-03-07T00:05:21.245Z,92.63
2023-03-07T00:06:21.239Z,92.53
2023-03-07T00:07:21.213Z,92.63
2023-03-07T00:08:21.207Z,93.56
2023-03-07T00:09:21.204Z,92.74
2023-03-07T00:10:21.205Z,92.74
2023-03-07T00:11:21.182Z,92.63
2023-03-07T00:12:21.157Z,92.43
2023-03-07T00:13:21.153Z,92.84
2023-03-07T00:14:21.154Z,92.84
2023-03-07T00:15:21.143Z,92.84
2023-03-07T00:16:21.184Z,93.04
2023-03-07T00:17:21.117Z,93.41
2023-03-07T00:18:21.099Z,93.35
2023-03-07T00:19:21.072Z,93.25
2023-03-07T00:20:21.079Z,93.15
2023-03-07T00:21:21.090Z,93.21
2023-03-07T00:22:21.064Z,93.35
2023-03-07T00:23:21.044Z,93.77
2023-03-07T00:24:21.050Z,93.15
2023-03-07T00:25:21.040Z,93.56
2023-03-07T00:26:21.034Z,93.66
2023-03-07T00:27:21.026Z,93.52
2023-03-07T00:28:20.976Z,94.08
2023-03-07T00:29:20.981Z,93.87
2023-03-07T00:30:20.966Z,93.25
2023-03-07T00:31:21.010Z,93.21
2023-03-07T00:32:20.974Z,93.31
2023-03-07T00:33:20.937Z,93.21
2023-03-07T00:34:20.905Z,93.52
2023-03-07T00:35:20.920Z,93.21
2023-03-07T00:36:20.895Z,93.31
2023-03-07T00:37:20.903Z,93.48
2023-03-07T00:38:20.878Z,93.62
2023-03-07T00:39:20.856Z,93.37
2023-03-07T00:40:20.854Z,92.80
2023-03-07T00:41:20.830Z,92.59
2023-03-07T00:42:20.816Z,92.85
2023-03-07T00:43:20.803Z,92.90
2023-03-07T00:44:20.817Z,92.80
2023-03-07T00:45:20.801Z,92.76
2023-03-07T00:46:20.770Z,92.76
2023-03-07T00:47:20.776Z,92.65
2023-03-07T00:48:23.271Z,92.55
2023-03-07T00:49:20.773Z,93.37
2023-03-07T00:50:20.738Z,93.48
2023-03-07T00:51:20.724Z,92.55
2023-03-07T00:52:20.718Z,92.24
2023-03-07T00:53:20.707Z,92.24
2023-03-07T00:54:20.694Z,92.19
2023-03-07T00:55:20.690Z,92.13
2023-03-07T00:56:20.665Z,92.44
2023-03-07T00:57:20.662Z,92.24
2023-03-07T00:58:20.637Z,92.40
2023-03-07T00:59:20.640Z,91.72
2023-03-07T01:00:20.632Z,91.78
2023-03-07T01:01:20.707Z,91.47
2023-03-07T01:02:20.607Z,91.67
2023-03-07T01:03:20.592Z,91.05
2023-03-07T01:04:20.667Z,90.84
2023-03-07T01:05:20.582Z,90.53
2023-03-07T01:06:20.574Z,89.92
2023-03-07T01:07:20.543Z,89.40
2023-03-07T01:08:20.531Z,89.36
2023-03-07T01:09:20.530Z,89.81
2023-03-07T01:10:20.501Z,89.67
2023-03-07T01:11:20.511Z,89.81
2023-03-07T01:12:20.490Z,89.25
2023-03-07T01:13:20.481Z,89.15
2023-03-07T01:14:20.470Z,88.84
2023-03-07T01:15:20.447Z,88.74
2023-03-07T01:16:20.620Z,88.94
2023-03-07T01:17:20.421Z,89.67
2023-03-07T01:18:20.413Z,89.36
2023-03-07T01:19:20.400Z,88.32
2023-03-07T01:20:20.388Z,88.36
2023-03-07T01:21:20.422Z,88.22
2023-03-07T01:22:20.382Z,88.32
2023-03-07T01:23:20.349Z,88.53
2023-03-07T01:24:20.343Z,88.53
2023-03-07T01:25:20.326Z,87.81
2023-03-07T01:26:20.366Z,88.43
2023-03-07T01:27:20.320Z,88.32
2023-03-07T01:28:20.319Z,88.18
2023-03-07T01:29:20.284Z,88.43
2023-03-07T01:30:20.281Z,88.43
2023-03-07T01:31:20.430Z,87.66
2023-03-07T01:32:20.303Z,87.91
2023-03-07T01:33:20.235Z,88.12
2023-03-07T01:34:20.242Z,87.97
2023-03-07T01:35:20.227Z,88.18
2023-03-07T01:36:20.348Z,87.81
2023-03-07T01:37:20.861Z,88.28
2023-03-07T01:38:20.181Z,87.81
2023-03-07T01:39:20.180Z,87.35
2023-03-07T01:40:20.159Z,88.12
2023-03-07T01:41:20.161Z,87.70
2023-03-07T01:42:20.137Z,88.39
2023-03-07T01:43:20.136Z,87.91
2023-03-07T01:44:20.132Z,88.12
2023-03-07T01:45:20.099Z,88.01
2023-03-07T01:46:20.117Z,88.01
2023-03-07T01:47:20.075Z,88.07
2023-03-07T01:48:20.072Z,88.18
2023-03-07T01:49:20.051Z,88.01
2023-03-07T01:50:20.060Z,87.97
2023-03-07T01:51:20.041Z,88.39
2023-03-07T01:52:20.041Z,88.43
2023-03-07T01:53:20.032Z,89.46
2023-03-07T01:54:20.004Z,89.04
2023-03-07T01:55:19.997Z,88.12
2023-03-07T01:56:20.012Z,88.12
2023-03-07T01:57:19.979Z,88.32
2023-03-07T01:58:19.967Z,89.25
2023-03-07T01:59:19.949Z,88.64
2023-03-07T02:00:19.927Z,88.53
2023-03-07T02:01:19.992Z,88.43
2023-03-07T02:02:19.921Z,88.94
2023-03-07T02:03:19.891Z,88.64
2023-03-07T02:04:19.916Z,88.64
2023-03-07T02:05:19.878Z,88.64
2023-03-07T02:06:19.874Z,88.32
2023-03-07T02:07:19.842Z,88.64
2023-03-07T02:08:19.836Z,88.94
2023-03-07T02:09:19.871Z,88.43
2023-03-07T02:10:19.824Z,88.64
2023-03-07T02:11:19.821Z,89.46
2023-03-07T02:12:22.173Z,88.43
2023-03-07T02:13:19.791Z,88.53
2023-03-07T02:14:19.766Z,88.84
2023-03-07T02:15:19.768Z,89.25
2023-03-07T02:16:19.779Z,89.25
2023-03-07T02:17:19.743Z,88.88
2023-03-07T02:18:19.723Z,88.32
2023-03-07T02:19:19.719Z,88.94
2023-03-07T02:20:19.712Z,88.64
2023-03-07T02:21:19.728Z,88.43
2023-03-07T02:22:19.678Z,88.84
2023-03-07T02:23:19.685Z,88.94
2023-03-07T02:24:19.667Z,88.53
2023-03-07T02:25:19.682Z,88.53
2023-03-07T02:26:19.648Z,88.32
2023-03-07T02:27:19.628Z,89.29
2023-03-07T02:28:19.621Z,88.32
2023-03-07T02:29:19.614Z,88.01
2023-03-07T02:30:19.599Z,88.32
2023-03-07T02:31:19.653Z,88.74
2023-03-07T02:32:19.643Z,88.32
2023-03-07T02:33:19.558Z,88.32
2023-03-07T02:34:19.544Z,87.81
2023-03-07T02:35:19.528Z,87.81
2023-03-07T02:36:19.546Z,88.01
2023-03-07T02:37:19.516Z,87.91
2023-03-07T02:38:19.496Z,88.01
2023-03-07T02:39:19.489Z,88.12
2023-03-07T02:40:19.478Z,87.70
2023-03-07T02:41:19.506Z,87.60
2023-03-07T02:42:19.464Z,87.81
2023-03-07T02:43:19.448Z,87.60
2023-03-07T02:44:19.447Z,87.91
2023-03-07T02:45:19.425Z,87.60
2023-03-07T02:46:19.469Z,87.66
2023-03-07T02:47:19.404Z,87.70
2023-03-07T02:48:19.383Z,87.29
2023-03-07T02:49:19.366Z,87.15
2023-03-07T02:50:19.400Z,87.18
2023-03-07T02:51:19.377Z,87.25
2023-03-07T02:52:19.344Z,86.67
2023-03-07T02:53:19.333Z,86.73
2023-03-07T02:54:19.326Z,86.77
2023-03-07T02:55:19.301Z,86.73
2023-03-07T02:56:19.309Z,87.56
2023-03-07T02:57:19.422Z,87.56
2023-03-07T02:58:19.268Z,87.66
2023-03-07T02:59:19.271Z,87.46
2023-03-07T03:00:19.263Z,87.56
2023-03-07T03:01:19.260Z,88.39
2023-03-07T03:02:19.260Z,87.97
2023-03-07T03:03:19.210Z,88.01
2023-03-07T03:04:19.343Z,87.87
2023-03-07T03:05:19.202Z,88.43
2023-03-07T03:06:19.179Z,88.12
2023-03-07T03:07:19.198Z,88.49
2023-03-07T03:08:19.180Z,88.49
2023-03-07T03:09:19.149Z,88.53
2023-03-07T03:10:19.148Z,88.64
2023-03-07T03:11:19.135Z,88.94
2023-03-07T03:12:19.122Z,88.22
2023-03-07T03:13:19.139Z,89.15
2023-03-07T03:15:17.215Z,89.25
2023-03-07T03:17:03.444Z,88.53
2023-03-07T03:18:44.642Z,88.49
2023-03-07T03:20:21.986Z,88.22
2023-03-07T03:21:57.032Z,88.64
2023-03-07T03:23:31.484Z,88.32
2023-03-07T03:25:04.402Z,89.56
2023-03-07T03:26:37.352Z,88.94
2023-03-07T03:28:08.158Z,88.53
2023-03-07T03:29:38.948Z,88.39
2023-03-07T03:31:08.894Z,88.94
2023-03-07T03:32:39.084Z,87.91
2023-03-07T03:34:08.326Z,88.53
2023-03-07T03:35:35.502Z,89.15
2023-03-07T03:37:02.331Z,89.50
2023-03-07T03:38:29.804Z,89.98
2023-03-07T03:39:54.582Z,89.29
2023-03-07T03:41:19.340Z,88.22
2023-03-07T03:42:43.191Z,89.56
2023-03-07T03:44:06.719Z,89.98
2023-03-07T03:45:31.210Z,89.71
2023-03-07T03:46:53.908Z,89.50
2023-03-07T03:48:15.824Z,89.71
2023-03-07T03:49:38.156Z,90.12
2023-03-07T03:50:56.834Z,89.81
2023-03-07T03:52:18.255Z,90.12
2023-03-07T03:53:36.063Z,90.02
2023-03-07T03:54:55.661Z,90.12
2023-03-07T03:56:14.954Z,90.02
2023-03-07T03:57:33.633Z,90.23
2023-03-07T03:58:51.106Z,90.12
2023-03-07T04:00:08.014Z,90.23
2023-03-07T04:01:26.392Z,90.12
2023-03-07T04:02:44.060Z,89.81
2023-03-07T04:03:59.223Z,90.02
2023-03-07T04:05:15.822Z,90.12
2023-03-07T04:06:30.566Z,90.12
2023-03-07T04:07:47.472Z,89.71
2023-03-07T04:09:02.495Z,90.02
2023-03-07T04:10:15.760Z,90.23
2023-03-07T04:11:29.604Z,90.02
2023-03-07T04:12:41.022Z,89.61
2023-03-07T04:13:53.354Z,89.19
2023-03-07T04:15:07.211Z,89.40
2023-03-07T04:16:19.004Z,89.81
2023-03-07T04:17:32.524Z,89.50
2023-03-07T04:18:43.011Z,89.50
2023-03-07T04:19:55.055Z,89.40
2023-03-07T04:21:07.102Z,89.19
2023-03-07T04:22:17.619Z,89.19
2023-03-07T04:23:29.752Z,89.09
2023-03-07T04:24:41.693Z,88.98
2023-03-07T04:25:52.349Z,88.36
2023-03-07T04:27:02.508Z,88.46
2023-03-07T04:28:12.636Z,88.88
2023-03-07T04:29:26.189Z,89.19
2023-03-07T04:30:34.583Z,88.06
2023-03-07T04:31:45.481Z,88.26
2023-03-07T04:32:55.973Z,88.84
2023-03-07T04:34:07.672Z,88.57
2023-03-07T04:35:15.782Z,88.78
2023-03-07T04:36:24.532Z,88.26
2023-03-07T04:37:34.109Z,88.46
2023-03-07T04:38:46.537Z,88.26
2023-03-07T04:39:57.865Z,88.36
2023-03-07T04:41:05.062Z,88.57
2023-03-07T04:42:14.669Z,87.95
2023-03-07T04:43:23.686Z,87.95
2023-03-07T04:44:32.111Z,88.26
2023-03-07T04:45:42.653Z,88.32
2023-03-07T04:46:55.252Z,88.16
2023-03-07T04:48:03.063Z,87.91
2023-03-07T04:49:10.597Z,88.64
2023-03-07T04:50:25.400Z,88.32
2023-03-07T04:51:34.318Z,88.53
2023-03-07T04:52:43.060Z,88.78
2023-03-07T04:53:55.084Z,88.84
2023-03-07T04:55:07.732Z,88.64
2023-03-07T04:56:14.005Z,88.46
2023-03-07T04:57:27.847Z,88.32
2023-03-07T04:58:36.590Z,89.36
2023-03-07T04:59:44.352Z,88.98
2023-03-07T05:00:53.059Z,88.46
2023-03-07T05:02:02.962Z,88.98
2023-03-07T05:03:16.535Z,89.29
2023-03-07T05:04:27.388Z,89.92
2023-03-07T05:05:39.668Z,90.02
2023-03-07T05:06:53.804Z,90.12
2023-03-07T05:08:10.444Z,90.23
2023-03-07T05:09:26.067Z,90.44
2023-03-07T05:10:36.059Z,90.84
2023-03-07T05:11:53.581Z,91.26
2023-03-07T05:13:03.091Z,90.84
2023-03-07T05:14:13.292Z,90.53
2023-03-07T05:15:26.050Z,90.53
2023-03-07T05:16:38.003Z,90.84
2023-03-07T05:17:52.158Z,90.23
2023-03-07T05:19:06.361Z,90.84
2023-03-07T05:20:21.401Z,90.23
2023-03-07T05:21:37.970Z,90.84
2023-03-07T05:22:58.177Z,90.84
2023-03-07T05:24:17.794Z,90.84
2023-03-07T05:25:37.120Z,90.33
2023-03-07T05:27:01.000Z,91.05
2023-03-07T05:28:23.323Z,90.84
2023-03-07T05:29:48.664Z,92.09
2023-03-07T05:31:14.367Z,90.95
2023-03-07T05:32:28.533Z,90.95
2023-03-07T05:33:53.920Z,91.36
2023-03-07T05:35:10.143Z,91.67
2023-03-07T05:36:24.269Z,91.16
2023-03-07T05:37:39.070Z,91.88
2023-03-07T05:38:57.726Z,91.47
2023-03-07T05:40:16.739Z,91.57
2023-03-07T05:41:37.848Z,91.57
2023-03-07T05:42:59.256Z,92.61
2023-03-07T05:44:21.267Z,92.34
2023-03-07T05:45:43.883Z,92.55
2023-03-07T05:47:07.438Z,93.16
2023-03-07T05:48:32.173Z,93.12
2023-03-07T05:49:58.137Z,92.34
2023-03-07T05:51:25.896Z,92.30
2023-03-07T05:52:53.137Z,92.71
2023-03-07T05:54:21.426Z,92.76
2023-03-07T05:55:54.435Z,92.76
2023-03-07T05:57:22.432Z,93.33
2023-03-07T05:58:58.677Z,93.27
2023-03-07T06:00:33.993Z,93.58
2023-03-07T06:02:18.764Z,93.48
2023-03-07T06:03:18.719Z,92.96
2023-03-07T06:04:18.709Z,93.48
2023-03-07T06:05:18.695Z,93.37
2023-03-07T06:06:18.663Z,93.58
2023-03-07T06:07:18.684Z,93.64
2023-03-07T06:08:18.646Z,93.12
2023-03-07T06:09:18.662Z,92.61
2023-03-07T06:10:18.618Z,93.12
2023-03-07T06:11:18.626Z,92.55
2023-03-07T06:12:18.610Z,92.30
2023-03-07T06:13:18.604Z,92.34
2023-03-07T06:14:18.605Z,92.55
2023-03-07T06:15:18.564Z,91.47
2023-03-07T06:16:18.697Z,91.67
2023-03-07T06:17:18.562Z,91.41
2023-03-07T06:18:18.526Z,91.26
2023-03-07T06:19:18.541Z,91.67
2023-03-07T06:20:18.517Z,91.05
2023-03-07T06:21:18.506Z,90.84
2023-03-07T06:22:18.506Z,90.44
2023-03-07T06:23:18.509Z,90.84
2023-03-07T06:24:18.466Z,92.09
2023-03-07T06:25:18.465Z,91.67
2023-03-07T06:26:18.451Z,91.78
2023-03-07T06:27:18.445Z,91.67
2023-03-07T06:28:18.427Z,91.67
2023-03-07T06:29:18.421Z,91.26
2023-03-07T06:30:18.408Z,91.26
2023-03-07T06:31:18.412Z,91.67
2023-03-07T06:32:18.462Z,91.57
2023-03-07T06:33:18.378Z,91.36
2023-03-07T06:34:18.369Z,91.36
2023-03-07T06:35:18.365Z,91.26
2023-03-07T06:36:18.326Z,91.67
2023-03-07T06:37:18.318Z,90.74
2023-03-07T06:38:18.317Z,90.95
2023-03-07T06:39:18.316Z,91.05
2023-03-07T06:40:18.420Z,90.84
2023-03-07T06:41:18.314Z,90.84
2023-03-07T06:42:18.268Z,90.84
2023-03-07T06:43:18.252Z,91.26
2023-03-07T06:44:18.237Z,91.36
2023-03-07T06:45:18.227Z,91.26
2023-03-07T06:46:18.233Z,90.53
2023-03-07T06:47:18.217Z,90.84
2023-03-07T06:48:18.196Z,90.33
2023-03-07T06:49:18.199Z,89.71
2023-03-07T06:50:26.431Z,90.12
2023-03-07T06:51:19.193Z,90.33
2023-03-07T06:52:18.144Z,90.29
2023-03-07T06:53:18.160Z,90.12
2023-03-07T06:54:18.121Z,90.19
2023-03-07T06:55:18.139Z,89.98
2023-03-07T06:56:18.103Z,89.77
2023-03-07T06:57:18.106Z,89.46
2023-03-07T06:58:18.089Z,89.15
2023-03-07T06:59:18.077Z,89.25
2023-03-07T07:00:18.082Z,89.15
2023-03-07T07:01:18.060Z,89.25
2023-03-07T07:02:18.164Z,89.36
2023-03-07T07:03:18.170Z,89.46
2023-03-07T07:04:18.021Z,89.04
2023-03-07T07:05:18.013Z,89.56
2023-03-07T07:06:17.986Z,89.67
2023-03-07T07:07:17.993Z,88.43
2023-03-07T07:08:17.965Z,88.74
2023-03-07T07:09:17.954Z,87.81
2023-03-07T07:10:17.952Z,88.12
2023-03-07T07:11:17.961Z,88.18
2023-03-07T07:12:17.932Z,87.66
2023-03-07T07:13:17.922Z,87.56
2023-03-07T07:14:17.893Z,87.46
2023-03-07T07:15:17.888Z,87.66
2023-03-07T07:16:17.888Z,86.94
2023-03-07T07:17:17.891Z,86.83
2023-03-07T07:18:17.870Z,86.52
2023-03-07T07:19:17.865Z,86.32
2023-03-07T07:20:17.891Z,86.52
2023-03-07T07:21:17.833Z,86.69
2023-03-07T07:22:17.873Z,86.73
2023-03-07T07:23:17.797Z,86.52
2023-03-07T07:24:17.795Z,86.52
2023-03-07T07:25:17.771Z,85.49
2023-03-07T07:26:17.761Z,86.01
2023-03-07T07:27:17.852Z,86.63
2023-03-07T07:28:17.745Z,86.11
2023-03-07T07:29:17.725Z,86.07
2023-03-07T07:30:17.734Z,85.66
2023-03-07T07:31:17.756Z,85.86
2023-03-07T07:32:17.920Z,85.86
2023-03-07T07:33:17.885Z,85.86
2023-03-07T07:34:17.677Z,85.97
2023-03-07T07:35:17.658Z,85.91
2023-03-07T07:36:17.657Z,86.79
2023-03-07T07:37:17.650Z,85.86
2023-03-07T07:38:17.622Z,85.04
2023-03-07T07:39:17.631Z,85.66
2023-03-07T07:40:17.612Z,85.49
2023-03-07T07:41:17.684Z,85.86
2023-03-07T07:42:17.594Z,85.91
2023-03-07T07:43:17.599Z,85.24
2023-03-07T07:44:17.591Z,85.66
2023-03-07T07:45:17.554Z,85.04
2023-03-07T07:46:17.771Z,84.66
2023-03-07T07:47:17.541Z,85.55
2023-03-07T07:48:17.513Z,85.24
2023-03-07T07:49:18.687Z,85.45
2023-03-07T07:50:17.519Z,85.76
2023-03-07T07:51:17.500Z,85.14
2023-03-07T07:52:17.480Z,85.55
2023-03-07T07:53:17.459Z,85.80
2023-03-07T07:54:17.459Z,85.45
2023-03-07T07:55:17.470Z,85.80
2023-03-07T07:56:17.425Z,85.18
2023-03-07T07:57:17.423Z,84.73
2023-03-07T07:58:17.417Z,84.63
2023-03-07T07:59:17.436Z,84.73
2023-03-07T08:00:17.408Z,84.25
2023-03-07T08:01:17.371Z,84.31
2023-03-07T08:02:17.395Z,84.63
2023-03-07T08:03:17.400Z,84.63
2023-03-07T08:04:17.348Z,84.36
2023-03-07T08:05:17.339Z,84.45
2023-03-07T08:06:19.610Z,84.31
2023-03-07T08:07:17.314Z,84.25
2023-03-07T08:08:17.300Z,84.36
2023-03-07T08:09:17.293Z,84.45
2023-03-07T08:10:17.287Z,85.08
2023-03-07T08:11:17.369Z,84.77
2023-03-07T08:12:17.245Z,84.83
2023-03-07T08:13:17.247Z,84.83
2023-03-07T08:14:17.225Z,85.86
2023-03-07T08:15:17.319Z,85.76
2023-03-07T08:16:17.299Z,84.94
2023-03-07T08:17:17.200Z,85.14
2023-03-07T08:18:17.196Z,85.45
2023-03-07T08:19:17.173Z,84.45
2023-03-07T08:20:17.154Z,84.63
2023-03-07T08:21:17.165Z,84.21
2023-03-07T08:22:17.146Z,84.63
2023-03-07T08:23:17.130Z,84.69
2023-03-07T08:24:17.133Z,84.79
2023-03-07T08:25:17.115Z,84.28
2023-03-07T08:26:17.098Z,84.48
2023-03-07T08:27:17.111Z,84.21
2023-03-07T08:28:17.147Z,84.17
2023-03-07T08:29:17.066Z,84.38
2023-03-07T08:30:17.065Z,83.97
2023-03-07T08:31:17.142Z,84.28
2023-03-07T08:32:17.072Z,84.21
2023-03-07T08:33:17.016Z,84.31
2023-03-07T08:34:17.006Z,84.21
2023-03-07T08:35:17.001Z,84.31
2023-03-07T08:36:16.976Z,84.38
2023-03-07T08:37:16.997Z,84.48
2023-03-07T08:38:16.967Z,84.28
2023-03-07T08:39:16.959Z,84.17
2023-03-07T08:40:16.947Z,83.97
2023-03-07T08:41:16.922Z,84.48
2023-03-07T08:42:16.944Z,84.73
2023-03-07T08:43:16.942Z,84.28
2023-03-07T08:44:16.879Z,84.38
2023-03-07T08:45:16.902Z,84.38
2023-03-07T08:46:16.973Z,84.38
2023-03-07T08:47:16.937Z,84.69
2023-03-07T08:48:16.853Z,84.52
2023-03-07T08:49:16.841Z,84.34
2023-03-07T08:50:16.850Z,84.38
2023-03-07T08:51:16.819Z,84.28
2023-03-07T08:52:16.811Z,84.28
2023-03-07T08:53:16.803Z,84.23
2023-03-07T08:54:16.782Z,83.86
2023-03-07T08:55:16.772Z,84.17
2023-03-07T08:56:16.743Z,84.17
2023-03-07T08:57:16.768Z,84.38
2023-03-07T08:58:16.749Z,84.75
2023-03-07T08:59:16.710Z,83.93
2023-03-07T09:00:16.805Z,84.65
2023-03-07T09:01:16.686Z,84.34
2023-03-07T09:02:16.673Z,84.23
2023-03-07T09:03:16.712Z,84.34
2023-03-07T09:04:16.757Z,84.03
2023-03-07T09:05:16.648Z,83.55
2023-03-07T09:06:16.636Z,83.83
2023-03-07T09:07:16.626Z,83.62
2023-03-07T09:08:16.617Z,83.51
2023-03-07T09:09:16.617Z,83.93
2023-03-07T09:10:16.587Z,84.59
2023-03-07T09:11:16.590Z,84.34
2023-03-07T09:12:16.684Z,83.62
2023-03-07T09:13:18.312Z,83.62
2023-03-07T09:14:16.573Z,84.44
2023-03-07T09:15:16.528Z,83.72
2023-03-07T09:16:16.626Z,83.51
2023-03-07T09:17:16.510Z,84.13
2023-03-07T09:18:16.507Z,84.23
2023-03-07T09:19:16.542Z,84.34
2023-03-07T09:20:16.480Z,83.78
2023-03-07T09:21:16.469Z,83.89
2023-03-07T09:22:16.447Z,82.96
2023-03-07T09:23:16.432Z,84.20
2023-03-07T09:24:16.454Z,84.41
2023-03-07T09:25:16.411Z,82.86
2023-03-07T09:26:16.405Z,83.27
2023-03-07T09:27:16.399Z,83.03
2023-03-07T09:28:16.379Z,82.86
2023-03-07T09:29:16.364Z,82.82
2023-03-07T09:30:16.396Z,83.17
2023-03-07T09:31:16.457Z,82.40
2023-03-07T09:32:16.384Z,82.82
2023-03-07T09:33:16.333Z,81.93
2023-03-07T09:34:16.324Z,81.79
2023-03-07T09:35:16.340Z,81.99
2023-03-07T09:36:16.305Z,81.99
2023-03-07T09:37:16.279Z,81.58
2023-03-07T09:38:16.269Z,81.99
2023-03-07T09:39:16.258Z,82.30
2023-03-07T09:40:16.248Z,81.48
2023-03-07T09:41:16.244Z,81.99
2023-03-07T09:42:16.235Z,81.89
2023-03-07T09:43:16.220Z,82.71
2023-03-07T09:44:16.215Z,82.20
2023-03-07T09:45:16.197Z,82.82
2023-03-07T09:46:16.204Z,81.89
2023-03-07T09:47:16.196Z,81.99
2023-03-07T09:48:16.177Z,82.10
2023-03-07T09:49:16.153Z,82.51
2023-03-07T09:50:16.133Z,82.40
2023-03-07T09:51:16.152Z,82.61
2023-03-07T09:52:16.120Z,81.96
2023-03-07T09:53:16.092Z,82.51
2023-03-07T09:54:16.099Z,82.51
2023-03-07T09:55:16.068Z,81.75
2023-03-07T09:56:16.069Z,82.06
2023-03-07T09:57:17.726Z,81.68
2023-03-07T09:58:16.228Z,81.48
2023-03-07T09:59:22.867Z,81.65
2023-03-07T10:00:17.017Z,81.58
2023-03-07T10:01:16.022Z,81.68
2023-03-07T10:02:16.031Z,81.13
2023-03-07T10:03:16.012Z,82.10
2023-03-07T10:04:16.025Z,81.75
2023-03-07T10:05:15.970Z,82.71
2023-03-07T10:06:15.951Z,82.61
2023-03-07T10:07:15.988Z,82.61
2023-03-07T10:08:15.929Z,82.82
2023-03-07T10:09:15.942Z,83.23
2023-03-07T10:10:15.906Z,82.89
2023-03-07T10:11:15.963Z,82.89
2023-03-07T10:12:15.902Z,82.89
2023-03-07T10:13:15.895Z,83.13
2023-03-07T10:14:15.935Z,83.50
2023-03-07T10:15:15.858Z,82.82
2023-03-07T10:16:15.901Z,82.78
2023-03-07T10:17:15.840Z,82.92
2023-03-07T10:18:15.839Z,83.03
2023-03-07T10:19:15.801Z,82.68
2023-03-07T10:20:15.821Z,83.09
2023-03-07T10:21:15.781Z,83.40
2023-03-07T10:22:15.787Z,82.92
2023-03-07T10:23:15.810Z,83.15
2023-03-07T10:24:15.765Z,83.09
2023-03-07T10:25:15.733Z,82.68
2023-03-07T10:26:15.728Z,82.89
2023-03-07T10:27:15.713Z,83.40
2023-03-07T10:28:15.715Z,83.71
2023-03-07T10:29:15.692Z,83.91
2023-03-07T10:30:15.727Z,84.53
2023-03-07T10:31:15.679Z,84.33
2023-03-07T10:32:15.718Z,84.12
2023-03-07T10:33:15.654Z,84.16
2023-03-07T10:34:26.383Z,84.12
2023-03-07T10:35:16.624Z,83.71
2023-03-07T10:36:15.628Z,84.27
2023-03-07T10:37:15.589Z,84.53
2023-03-07T10:38:15.605Z,84.47
2023-03-07T10:39:15.623Z,85.71
2023-03-07T10:40:15.578Z,84.64
2023-03-07T10:41:15.558Z,85.60
2023-03-07T10:42:15.553Z,85.67
2023-03-07T10:43:15.550Z,85.91
2023-03-07T10:44:15.529Z,86.43
2023-03-07T10:45:15.510Z,85.91
2023-03-07T10:46:25.286Z,84.78
2023-03-07T10:47:16.474Z,85.71
2023-03-07T10:48:15.484Z,86.22
2023-03-07T10:49:15.452Z,85.50
2023-03-07T10:50:15.461Z,86.53
2023-03-07T10:51:15.426Z,86.43
2023-03-07T10:52:15.434Z,85.71
2023-03-07T10:53:15.436Z,85.50
2023-03-07T10:54:15.417Z,86.53
2023-03-07T10:55:15.405Z,87.26
2023-03-07T10:56:15.373Z,87.15
2023-03-07T10:57:15.378Z,87.35
2023-03-07T10:58:15.385Z,86.12
2023-03-07T10:59:15.341Z,86.12
2023-03-07T11:00:15.344Z,85.81
2023-03-07T11:01:15.407Z,85.60
2023-03-07T11:02:15.309Z,85.71
2023-03-07T11:03:15.326Z,85.67
2023-03-07T11:04:15.283Z,85.77
2023-03-07T11:05:15.282Z,85.50
2023-03-07T11:06:15.258Z,85.60
2023-03-07T11:07:15.242Z,85.81
2023-03-07T11:08:15.237Z,85.71
2023-03-07T11:09:15.252Z,85.91
2023-03-07T11:10:15.217Z,85.71
2023-03-07T11:11:15.232Z,85.71
2023-03-07T11:12:15.201Z,85.60
2023-03-07T11:13:15.184Z,85.39
2023-03-07T11:14:16.936Z,85.57
2023-03-07T11:15:15.157Z,86.53
2023-03-07T11:16:15.181Z,85.71
2023-03-07T11:17:15.135Z,85.15
2023-03-07T11:18:15.136Z,86.43
2023-03-07T11:19:15.123Z,86.53
2023-03-07T11:20:15.118Z,86.29
2023-03-07T11:21:15.095Z,86.08
2023-03-07T11:22:15.079Z,86.32
2023-03-07T11:23:15.058Z,87.66
2023-03-07T11:24:15.085Z,87.21
2023-03-07T11:25:15.034Z,87.26
2023-03-07T11:26:15.066Z,87.01
2023-03-07T11:27:15.069Z,87.63
2023-03-07T11:28:15.024Z,86.63
2023-03-07T11:29:14.992Z,85.25
2023-03-07T11:30:14.997Z,86.18
2023-03-07T11:31:15.012Z,87.26
2023-03-07T11:32:15.004Z,88.08
2023-03-07T11:33:14.943Z,87.42
2023-03-07T11:34:14.937Z,87.52
2023-03-07T11:35:14.922Z,87.26
2023-03-07T11:36:14.913Z,87.11
2023-03-07T11:37:14.917Z,87.21
2023-03-07T11:38:14.909Z,88.14
2023-03-07T11:39:14.875Z,87.42
2023-03-07T11:40:14.881Z,86.70
2023-03-07T11:41:14.851Z,86.43
2023-03-07T11:42:14.870Z,86.49
2023-03-07T11:43:14.880Z,86.60
2023-03-07T11:44:14.838Z,86.39
2023-03-07T11:45:14.823Z,86.08
2023-03-07T11:46:14.843Z,86.45
2023-03-07T11:47:14.811Z,86.35
2023-03-07T11:48:14.795Z,86.39
2023-03-07T11:49:16.389Z,86.29
2023-03-07T11:50:14.759Z,86.49
2023-03-07T11:51:14.741Z,86.49
2023-03-07T11:52:14.758Z,86.18
2023-03-07T11:53:14.736Z,86.70
2023-03-07T11:54:14.727Z,86.35
2023-03-07T11:55:14.717Z,87.07
2023-03-07T11:56:15.441Z,86.35
2023-03-07T11:57:14.709Z,86.15
2023-03-07T11:58:14.689Z,86.24
2023-03-07T11:59:14.693Z,86.35
2023-03-07T12:00:14.654Z,86.04
2023-03-07T12:01:14.644Z,86.45
2023-03-07T12:02:14.642Z,87.07
2023-03-07T12:03:14.623Z,86.35
2023-03-07T12:04:14.616Z,86.66
2023-03-07T12:05:14.617Z,87.07
2023-03-07T12:06:14.618Z,87.59
2023-03-07T12:07:14.563Z,86.45
2023-03-07T12:08:14.572Z,87.07
2023-03-07T12:09:14.540Z,87.59
2023-03-07T12:10:14.582Z,87.48
2023-03-07T12:11:14.531Z,87.59
2023-03-07T12:12:14.526Z,87.99
2023-03-07T12:13:14.523Z,87.38
2023-03-07T12:14:14.505Z,86.97
2023-03-07T12:15:14.510Z,86.87
2023-03-07T12:16:14.518Z,86.49
2023-03-07T12:17:14.454Z,87.59
2023-03-07T12:18:14.473Z,87.38
2023-03-07T12:19:14.448Z,87.59
2023-03-07T12:20:14.581Z,87.27
2023-03-07T12:21:14.413Z,87.38
2023-03-07T12:22:14.411Z,87.27
2023-03-07T12:23:14.422Z,87.38
2023-03-07T12:24:14.376Z,86.87
2023-03-07T12:25:14.378Z,87.59
2023-03-07T12:26:14.369Z,87.17
2023-03-07T12:27:14.355Z,87.99
2023-03-07T12:28:14.373Z,87.99
2023-03-07T12:29:14.329Z,87.90
2023-03-07T12:30:14.336Z,87.27
2023-03-07T12:31:14.408Z,87.99
2023-03-07T12:32:14.522Z,87.69
2023-03-07T12:33:14.372Z,87.69
2023-03-07T12:34:14.280Z,88.20
2023-03-07T12:35:14.256Z,88.04
2023-03-07T12:36:14.445Z,88.04
2023-03-07T12:37:14.235Z,88.14
2023-03-07T12:38:14.219Z,87.87
2023-03-07T12:39:14.232Z,88.49
2023-03-07T12:40:14.198Z,88.80
2023-03-07T12:41:14.180Z,88.70
2023-03-07T12:42:14.185Z,89.42
2023-03-07T12:43:14.177Z,89.22
2023-03-07T12:44:14.166Z,89.22
2023-03-07T12:45:14.282Z,89.05
2023-03-07T12:46:14.160Z,89.67
2023-03-07T12:47:14.160Z,89.36
2023-03-07T12:48:14.127Z,89.67
2023-03-07T12:49:14.111Z,89.87
2023-03-07T12:50:14.106Z,89.92
2023-03-07T12:51:14.083Z,89.61
2023-03-07T12:52:14.064Z,89.81
2023-03-07T12:53:14.056Z,90.12
2023-03-07T12:54:14.055Z,89.75
2023-03-07T12:55:14.025Z,90.37
2023-03-07T12:56:14.016Z,89.89
2023-03-07T12:57:14.000Z,90.37
2023-03-07T12:58:13.995Z,90.68
2023-03-07T12:59:13.995Z,90.72
2023-03-07T13:00:13.972Z,90.26
2023-03-07T13:01:14.022Z,90.41
2023-03-07T13:02:13.968Z,90.72
2023-03-07T13:03:13.957Z,90.72
2023-03-07T13:04:13.982Z,90.77
2023-03-07T13:05:13.920Z,90.31
2023-03-07T13:06:13.912Z,91.24
2023-03-07T13:07:13.900Z,90.77
2023-03-07T13:08:13.879Z,90.41
2023-03-07T13:09:13.888Z,90.77
2023-03-07T13:10:13.852Z,90.83
2023-03-07T13:11:13.865Z,91.38
2023-03-07T13:12:13.843Z,91.07
2023-03-07T13:13:13.818Z,91.49
2023-03-07T13:14:13.846Z,91.28
2023-03-07T13:15:13.803Z,91.17
2023-03-07T13:16:13.823Z,90.66
2023-03-07T13:17:13.794Z,90.91
2023-03-07T13:18:13.768Z,90.87
2023-03-07T13:19:13.783Z,91.53
2023-03-07T13:20:13.755Z,91.22
2023-03-07T13:21:13.737Z,91.53
2023-03-07T13:22:13.709Z,91.67
2023-03-07T13:23:13.747Z,91.42
2023-03-07T13:24:13.698Z,91.22
2023-03-07T13:25:13.714Z,91.05
2023-03-07T13:26:13.683Z,91.99
2023-03-07T13:27:13.655Z,91.84
2023-03-07T13:28:13.659Z,91.26
2023-03-07T13:29:13.648Z,91.16
2023-03-07T13:30:13.645Z,91.26
2023-03-07T13:31:13.783Z,91.78
2023-03-07T13:32:13.611Z,91.88